sensor_id;sensor_type;location;lat;lon;timestamp;P1;durP1;ratioP1;P2;durP2;ratioP2
47353;SDS011;50657;48.830;2.282;2022-12-29T00:01:30;2.17;;;0.98;;
47353;SDS011;50657;48.830;2.282;2022-12-29T00:03:58;3.70;;;0.60;;
47353;SDS011;50657;48.830;2.282;2022-12-29T00:06:25;1.75;;;0.47;;
47353;SDS011;50657;48.830;2.282;2022-12-29T00:08:54;0.75;;;0.20;;
47353;SDS011;50657;48.830;2.282;2022-12-29T00:11:22;0.60;;;0.30;;
47353;SDS011;50657;48.830;2.282;2022-12-29T00:13:51;0.80;;;0.25;;
47353;SDS011;50657;48.830;2.282;2022-12-29T00:16:36;0.47;;;0.20;;
47353;SDS011;50657;48.830;2.282;2022-12-29T00:19:04;1.23;;;0.40;;
47353;SDS011;50657;48.830;2.282;2022-12-29T00:21:31;1.00;;;0.30;;
47353;SDS011;50657;48.830;2.282;2022-12-29T00:24:18;0.40;;;0.40;;
47353;SDS011;50657;48.830;2.282;2022-12-29T00:27:09;0.80;;;0.28;;
47353;SDS011;50657;48.830;2.282;2022-12-29T00:29:55;0.17;;;0.10;;
47353;SDS011;50657;48.830;2.282;2022-12-29T00:32:41;0.30;;;0.10;;
47353;SDS011;50657;48.830;2.282;2022-12-29T00:35:26;1.08;;;0.30;;
47353;SDS011;50657;48.830;2.282;2022-12-29T00:37:55;0.98;;;0.20;;
47353;SDS011;50657;48.830;2.282;2022-12-29T00:40:45;1.20;;;0.20;;
47353;SDS011;50657;48.830;2.282;2022-12-29T00:43:31;0.30;;;0.17;;
47353;SDS011;50657;48.830;2.282;2022-12-29T00:46:15;2.60;;;0.40;;
47353;SDS011;50657;48.830;2.282;2022-12-29T00:48:42;0.28;;;0.10;;
47353;SDS011;50657;48.830;2.282;2022-12-29T00:51:27;0.77;;;0.20;;
47353;SDS011;50657;48.830;2.282;2022-12-29T00:53:54;0.40;;;0.15;;
47353;SDS011;50657;48.830;2.282;2022-12-29T00:56:22;0.75;;;0.10;;
47353;SDS011;50657;48.830;2.282;2022-12-29T00:58:49;1.02;;;0.10;;
47353;SDS011;50657;48.830;2.282;2022-12-29T01:01:16;0.85;;;0.10;;
47353;SDS011;50657;48.830;2.282;2022-12-29T01:03:43;0.85;;;0.10;;
47353;SDS011;50657;48.830;2.282;2022-12-29T01:06:11;0.68;;;0.10;;
47353;SDS011;50657;48.830;2.282;2022-12-29T01:08:39;0.75;;;0.47;;
47353;SDS011;50657;48.830;2.282;2022-12-29T01:11:06;0.10;;;0.10;;
47353;SDS011;50657;48.830;2.282;2022-12-29T01:13:35;0.55;;;0.55;;
47353;SDS011;50657;48.830;2.282;2022-12-29T01:16:03;0.63;;;0.10;;
47353;SDS011;50657;48.830;2.282;2022-12-29T01:18:31;1.27;;;0.10;;
47353;SDS011;50657;48.830;2.282;2022-12-29T01:20:59;1.75;;;0.30;;
47353;SDS011;50657;48.830;2.282;2022-12-29T01:23:26;0.68;;;0.15;;
47353;SDS011;50657;48.830;2.282;2022-12-29T01:25:53;0.57;;;0.57;;
47353;SDS011;50657;48.830;2.282;2022-12-29T01:28:23;0.85;;;0.10;;
47353;SDS011;50657;48.830;2.282;2022-12-29T01:30:51;0.10;;;0.10;;
47353;SDS011;50657;48.830;2.282;2022-12-29T01:33:18;0.85;;;0.10;;
47353;SDS011;50657;48.830;2.282;2022-12-29T01:35:45;0.73;;;0.45;;
47353;SDS011;50657;48.830;2.282;2022-12-29T01:38:12;0.30;;;0.00;;
47353;SDS011;50657;48.830;2.282;2022-12-29T01:40:43;0.63;;;0.10;;
47353;SDS011;50657;48.830;2.282;2022-12-29T01:43:11;0.20;;;0.10;;
47353;SDS011;50657;48.830;2.282;2022-12-29T01:45:41;0.32;;;0.10;;
47353;SDS011;50657;48.830;2.282;2022-12-29T01:48:15;0.10;;;0.10;;
47353;SDS011;50657;48.830;2.282;2022-12-29T01:50:45;0.90;;;0.10;;
47353;SDS011;50657;48.830;2.282;2022-12-29T01:53:18;0.10;;;0.00;;
47353;SDS011;50657;48.830;2.282;2022-12-29T01:55:48;2.28;;;0.10;;
47353;SDS011;50657;48.830;2.282;2022-12-29T01:58:19;1.48;;;0.00;;
47353;SDS011;50657;48.830;2.282;2022-12-29T02:00:48;0.10;;;0.10;;
47353;SDS011;50657;48.830;2.282;2022-12-29T02:03:16;0.25;;;0.00;;
47353;SDS011;50657;48.830;2.282;2022-12-29T02:05:46;2.38;;;0.10;;
47353;SDS011;50657;48.830;2.282;2022-12-29T02:08:18;2.20;;;0.00;;
47353;SDS011;50657;48.830;2.282;2022-12-29T02:10:46;1.15;;;0.00;;
47353;SDS011;50657;48.830;2.282;2022-12-29T02:13:15;0.20;;;0.00;;
47353;SDS011;50657;48.830;2.282;2022-12-29T02:15:46;0.65;;;0.03;;
47353;SDS011;50657;48.830;2.282;2022-12-29T02:18:24;1.23;;;0.10;;
47353;SDS011;50657;48.830;2.282;2022-12-29T02:24:12;0.93;;;0.00;;
47353;SDS011;50657;48.830;2.282;2022-12-29T02:30:39;0.10;;;0.00;;
47353;SDS011;50657;48.830;2.282;2022-12-29T02:33:13;0.35;;;0.35;;
47353;SDS011;50657;48.830;2.282;2022-12-29T02:35:54;0.93;;;0.00;;
47353;SDS011;50657;48.830;2.282;2022-12-29T02:38:31;0.38;;;0.10;;
47353;SDS011;50657;48.830;2.282;2022-12-29T02:41:09;0.10;;;0.10;;
47353;SDS011;50657;48.830;2.282;2022-12-29T02:43:47;0.05;;;0.00;;
47353;SDS011;50657;48.830;2.282;2022-12-29T02:46:21;2.15;;;0.30;;
47353;SDS011;50657;48.830;2.282;2022-12-29T02:48:55;0.30;;;0.00;;
47353;SDS011;50657;48.830;2.282;2022-12-29T02:51:32;1.05;;;0.00;;
47353;SDS011;50657;48.830;2.282;2022-12-29T02:54:02;0.63;;;0.63;;
47353;SDS011;50657;48.830;2.282;2022-12-29T02:56:47;0.20;;;0.00;;
47353;SDS011;50657;48.830;2.282;2022-12-29T02:59:15;0.00;;;0.00;;
47353;SDS011;50657;48.830;2.282;2022-12-29T03:01:53;0.10;;;0.00;;
47353;SDS011;50657;48.830;2.282;2022-12-29T03:04:51;1.23;;;0.08;;
47353;SDS011;50657;48.830;2.282;2022-12-29T03:07:43;1.13;;;0.55;;
47353;SDS011;50657;48.830;2.282;2022-12-29T03:10:20;0.08;;;0.00;;
47353;SDS011;50657;48.830;2.282;2022-12-29T03:13:01;0.10;;;0.10;;
47353;SDS011;50657;48.830;2.282;2022-12-29T03:15:50;0.65;;;0.03;;
47353;SDS011;50657;48.830;2.282;2022-12-29T03:18:31;1.27;;;0.00;;
47353;SDS011;50657;48.830;2.282;2022-12-29T03:21:07;0.10;;;0.00;;
47353;SDS011;50657;48.830;2.282;2022-12-29T03:23:37;0.88;;;0.00;;
47353;SDS011;50657;48.830;2.282;2022-12-29T03:26:10;0.10;;;0.00;;
47353;SDS011;50657;48.830;2.282;2022-12-29T03:28:40;4.03;;;0.03;;
47353;SDS011;50657;48.830;2.282;2022-12-29T03:31:16;0.10;;;0.10;;
47353;SDS011;50657;48.830;2.282;2022-12-29T03:33:48;0.10;;;0.00;;
47353;SDS011;50657;48.830;2.282;2022-12-29T03:36:20;0.75;;;0.00;;
47353;SDS011;50657;48.830;2.282;2022-12-29T03:38:55;1.33;;;0.00;;
47353;SDS011;50657;48.830;2.282;2022-12-29T03:41:27;3.15;;;0.10;;
47353;SDS011;50657;48.830;2.282;2022-12-29T03:43:59;0.75;;;0.00;;
47353;SDS011;50657;48.830;2.282;2022-12-29T03:46:26;1.65;;;0.00;;
47353;SDS011;50657;48.830;2.282;2022-12-29T03:48:55;0.40;;;0.00;;
47353;SDS011;50657;48.830;2.282;2022-12-29T03:51:22;0.00;;;0.00;;
47353;SDS011;50657;48.830;2.282;2022-12-29T03:53:50;3.60;;;0.10;;
47353;SDS011;50657;48.830;2.282;2022-12-29T03:56:17;0.00;;;0.00;;
47353;SDS011;50657;48.830;2.282;2022-12-29T03:58:46;0.73;;;0.00;;
47353;SDS011;50657;48.830;2.282;2022-12-29T04:01:18;0.80;;;0.10;;
47353;SDS011;50657;48.830;2.282;2022-12-29T04:03:45;0.40;;;0.08;;
47353;SDS011;50657;48.830;2.282;2022-12-29T04:06:14;0.30;;;0.00;;
47353;SDS011;50657;48.830;2.282;2022-12-29T04:08:48;1.83;;;0.35;;
47353;SDS011;50657;48.830;2.282;2022-12-29T04:11:15;1.08;;;0.10;;
47353;SDS011;50657;48.830;2.282;2022-12-29T04:13:43;0.77;;;0.15;;
47353;SDS011;50657;48.830;2.282;2022-12-29T04:16:13;2.38;;;0.10;;
47353;SDS011;50657;48.830;2.282;2022-12-29T04:18:41;1.17;;;0.00;;
47353;SDS011;50657;48.830;2.282;2022-12-29T04:21:08;2.33;;;0.00;;
47353;SDS011;50657;48.830;2.282;2022-12-29T04:23:40;0.40;;;0.00;;
47353;SDS011;50657;48.830;2.282;2022-12-29T04:26:08;0.38;;;0.10;;
47353;SDS011;50657;48.830;2.282;2022-12-29T04:28:49;1.23;;;0.00;;
47353;SDS011;50657;48.830;2.282;2022-12-29T04:31:31;0.25;;;0.00;;
47353;SDS011;50657;48.830;2.282;2022-12-29T04:33:58;1.38;;;0.10;;
47353;SDS011;50657;48.830;2.282;2022-12-29T04:36:26;0.57;;;0.00;;
47353;SDS011;50657;48.830;2.282;2022-12-29T04:38:54;0.75;;;0.00;;
47353;SDS011;50657;48.830;2.282;2022-12-29T04:41:21;2.30;;;0.10;;
47353;SDS011;50657;48.830;2.282;2022-12-29T04:43:49;1.95;;;0.20;;
47353;SDS011;50657;48.830;2.282;2022-12-29T04:46:16;2.13;;;0.20;;
47353;SDS011;50657;48.830;2.282;2022-12-29T04:48:51;1.40;;;0.00;;
47353;SDS011;50657;48.830;2.282;2022-12-29T04:51:47;1.52;;;0.20;;
47353;SDS011;50657;48.830;2.282;2022-12-29T04:54:17;0.47;;;0.00;;
47353;SDS011;50657;48.830;2.282;2022-12-29T04:56:49;0.63;;;0.00;;
47353;SDS011;50657;48.830;2.282;2022-12-29T04:59:17;1.83;;;0.05;;
47353;SDS011;50657;48.830;2.282;2022-12-29T05:01:47;1.17;;;0.00;;
47353;SDS011;50657;48.830;2.282;2022-12-29T05:04:14;1.45;;;0.00;;
47353;SDS011;50657;48.830;2.282;2022-12-29T05:06:42;0.65;;;0.00;;
47353;SDS011;50657;48.830;2.282;2022-12-29T05:09:10;1.52;;;0.10;;
47353;SDS011;50657;48.830;2.282;2022-12-29T05:11:38;3.15;;;0.10;;
47353;SDS011;50657;48.830;2.282;2022-12-29T05:14:07;1.85;;;0.10;;
47353;SDS011;50657;48.830;2.282;2022-12-29T05:16:35;0.10;;;0.03;;
47353;SDS011;50657;48.830;2.282;2022-12-29T05:19:02;0.40;;;0.05;;
47353;SDS011;50657;48.830;2.282;2022-12-29T05:21:31;0.40;;;0.00;;
47353;SDS011;50657;48.830;2.282;2022-12-29T05:23:58;0.38;;;0.10;;
47353;SDS011;50657;48.830;2.282;2022-12-29T05:26:26;0.55;;;0.00;;
47353;SDS011;50657;48.830;2.282;2022-12-29T05:29:15;0.63;;;0.10;;
47353;SDS011;50657;48.830;2.282;2022-12-29T05:31:42;2.08;;;0.10;;
47353;SDS011;50657;48.830;2.282;2022-12-29T05:34:09;1.38;;;0.10;;
47353;SDS011;50657;48.830;2.282;2022-12-29T05:36:38;0.25;;;0.10;;
47353;SDS011;50657;48.830;2.282;2022-12-29T05:39:08;1.10;;;0.00;;
47353;SDS011;50657;48.830;2.282;2022-12-29T05:41:36;3.90;;;0.20;;
47353;SDS011;50657;48.830;2.282;2022-12-29T05:44:24;0.50;;;0.10;;
47353;SDS011;50657;48.830;2.282;2022-12-29T05:47:14;2.55;;;0.20;;
47353;SDS011;50657;48.830;2.282;2022-12-29T05:49:47;0.85;;;0.03;;
47353;SDS011;50657;48.830;2.282;2022-12-29T05:52:26;1.38;;;0.63;;
47353;SDS011;50657;48.830;2.282;2022-12-29T05:54:53;0.57;;;0.10;;
47353;SDS011;50657;48.830;2.282;2022-12-29T05:57:22;1.98;;;0.68;;
47353;SDS011;50657;48.830;2.282;2022-12-29T06:00:00;1.52;;;0.10;;
47353;SDS011;50657;48.830;2.282;2022-12-29T06:02:29;1.83;;;0.10;;
47353;SDS011;50657;48.830;2.282;2022-12-29T06:04:56;0.30;;;0.30;;
47353;SDS011;50657;48.830;2.282;2022-12-29T06:07:23;2.33;;;0.10;;
47353;SDS011;50657;48.830;2.282;2022-12-29T06:09:50;1.35;;;0.10;;
47353;SDS011;50657;48.830;2.282;2022-12-29T06:12:18;3.30;;;0.10;;
47353;SDS011;50657;48.830;2.282;2022-12-29T06:14:48;3.47;;;0.10;;
47353;SDS011;50657;48.830;2.282;2022-12-29T06:17:16;4.22;;;0.10;;
47353;SDS011;50657;48.830;2.282;2022-12-29T06:19:44;2.40;;;0.10;;
47353;SDS011;50657;48.830;2.282;2022-12-29T06:22:11;1.30;;;0.10;;
47353;SDS011;50657;48.830;2.282;2022-12-29T06:24:39;1.42;;;0.10;;
47353;SDS011;50657;48.830;2.282;2022-12-29T06:27:06;3.78;;;0.10;;
47353;SDS011;50657;48.830;2.282;2022-12-29T06:29:34;2.90;;;0.10;;
47353;SDS011;50657;48.830;2.282;2022-12-29T06:32:02;1.48;;;0.20;;
47353;SDS011;50657;48.830;2.282;2022-12-29T06:34:33;1.35;;;0.10;;
47353;SDS011;50657;48.830;2.282;2022-12-29T06:37:00;1.50;;;0.30;;
47353;SDS011;50657;48.830;2.282;2022-12-29T06:39:27;1.30;;;0.10;;
47353;SDS011;50657;48.830;2.282;2022-12-29T06:42:04;1.00;;;0.10;;
47353;SDS011;50657;48.830;2.282;2022-12-29T06:44:44;1.88;;;0.10;;
47353;SDS011;50657;48.830;2.282;2022-12-29T06:47:11;1.30;;;0.10;;
47353;SDS011;50657;48.830;2.282;2022-12-29T06:49:39;1.27;;;0.10;;
47353;SDS011;50657;48.830;2.282;2022-12-29T06:52:06;1.45;;;0.10;;
47353;SDS011;50657;48.830;2.282;2022-12-29T06:54:33;1.45;;;0.10;;
47353;SDS011;50657;48.830;2.282;2022-12-29T06:57:00;0.90;;;0.10;;
47353;SDS011;50657;48.830;2.282;2022-12-29T06:59:27;2.33;;;0.32;;
47353;SDS011;50657;48.830;2.282;2022-12-29T07:01:54;2.05;;;0.20;;
47353;SDS011;50657;48.830;2.282;2022-12-29T07:04:21;1.50;;;0.10;;
47353;SDS011;50657;48.830;2.282;2022-12-29T07:06:50;5.38;;;1.10;;
47353;SDS011;50657;48.830;2.282;2022-12-29T07:09:17;1.48;;;0.10;;
47353;SDS011;50657;48.830;2.282;2022-12-29T07:11:44;2.75;;;0.17;;
47353;SDS011;50657;48.830;2.282;2022-12-29T07:14:11;1.90;;;0.15;;
47353;SDS011;50657;48.830;2.282;2022-12-29T07:16:38;2.60;;;0.25;;
47353;SDS011;50657;48.830;2.282;2022-12-29T07:19:05;3.40;;;0.10;;
47353;SDS011;50657;48.830;2.282;2022-12-29T07:21:32;1.45;;;0.10;;
47353;SDS011;50657;48.830;2.282;2022-12-29T07:24:01;2.85;;;0.52;;
47353;SDS011;50657;48.830;2.282;2022-12-29T07:26:28;3.47;;;0.20;;
47353;SDS011;50657;48.830;2.282;2022-12-29T07:28:55;1.15;;;0.20;;
47353;SDS011;50657;48.830;2.282;2022-12-29T07:31:23;1.23;;;0.35;;
47353;SDS011;50657;48.830;2.282;2022-12-29T07:33:50;0.57;;;0.22;;
47353;SDS011;50657;48.830;2.282;2022-12-29T07:36:17;2.45;;;0.10;;
47353;SDS011;50657;48.830;2.282;2022-12-29T07:38:44;2.95;;;0.77;;
47353;SDS011;50657;48.830;2.282;2022-12-29T07:41:13;3.35;;;0.10;;
47353;SDS011;50657;48.830;2.282;2022-12-29T07:43:40;2.53;;;0.40;;
47353;SDS011;50657;48.830;2.282;2022-12-29T07:46:28;3.40;;;0.10;;
47353;SDS011;50657;48.830;2.282;2022-12-29T07:48:55;2.10;;;0.20;;
47353;SDS011;50657;48.830;2.282;2022-12-29T07:51:22;5.13;;;0.60;;
47353;SDS011;50657;48.830;2.282;2022-12-29T07:53:49;5.30;;;0.17;;
47353;SDS011;50657;48.830;2.282;2022-12-29T07:56:18;3.20;;;0.35;;
47353;SDS011;50657;48.830;2.282;2022-12-29T07:58:45;2.88;;;0.20;;
47353;SDS011;50657;48.830;2.282;2022-12-29T08:01:12;2.83;;;0.10;;
47353;SDS011;50657;48.830;2.282;2022-12-29T08:03:39;3.55;;;0.88;;
47353;SDS011;50657;48.830;2.282;2022-12-29T08:06:08;6.10;;;1.25;;
47353;SDS011;50657;48.830;2.282;2022-12-29T08:08:36;1.75;;;0.63;;
47353;SDS011;50657;48.830;2.282;2022-12-29T08:11:03;0.82;;;0.10;;
47353;SDS011;50657;48.830;2.282;2022-12-29T08:13:31;4.38;;;0.13;;
47353;SDS011;50657;48.830;2.282;2022-12-29T08:15:59;1.92;;;0.15;;
47353;SDS011;50657;48.830;2.282;2022-12-29T08:18:26;2.28;;;0.10;;
47353;SDS011;50657;48.830;2.282;2022-12-29T08:20:53;6.00;;;0.10;;
47353;SDS011;50657;48.830;2.282;2022-12-29T08:23:20;3.38;;;0.52;;
47353;SDS011;50657;48.830;2.282;2022-12-29T08:25:46;5.72;;;0.30;;
47353;SDS011;50657;48.830;2.282;2022-12-29T08:28:22;3.10;;;0.10;;
47353;SDS011;50657;48.830;2.282;2022-12-29T08:30:51;1.90;;;0.30;;
47353;SDS011;50657;48.830;2.282;2022-12-29T08:33:18;4.10;;;0.20;;
47353;SDS011;50657;48.830;2.282;2022-12-29T08:35:45;2.28;;;0.57;;
47353;SDS011;50657;48.830;2.282;2022-12-29T08:38:12;3.25;;;0.10;;
47353;SDS011;50657;48.830;2.282;2022-12-29T08:40:39;1.20;;;0.30;;
47353;SDS011;50657;48.830;2.282;2022-12-29T08:43:07;3.10;;;0.52;;
47353;SDS011;50657;48.830;2.282;2022-12-29T08:45:34;3.03;;;0.10;;
47353;SDS011;50657;48.830;2.282;2022-12-29T08:48:02;3.17;;;0.43;;
47353;SDS011;50657;48.830;2.282;2022-12-29T08:50:29;3.33;;;0.30;;
47353;SDS011;50657;48.830;2.282;2022-12-29T08:52:56;0.93;;;0.30;;
47353;SDS011;50657;48.830;2.282;2022-12-29T08:55:23;2.55;;;0.10;;
47353;SDS011;50657;48.830;2.282;2022-12-29T08:57:51;2.17;;;0.20;;
47353;SDS011;50657;48.830;2.282;2022-12-29T09:00:19;3.40;;;0.20;;
47353;SDS011;50657;48.830;2.282;2022-12-29T09:02:47;2.33;;;0.30;;
47353;SDS011;50657;48.830;2.282;2022-12-29T09:05:15;2.97;;;0.77;;
47353;SDS011;50657;48.830;2.282;2022-12-29T09:07:42;3.15;;;0.63;;
47353;SDS011;50657;48.830;2.282;2022-12-29T09:10:09;2.75;;;0.55;;
47353;SDS011;50657;48.830;2.282;2022-12-29T09:12:36;7.20;;;1.15;;
47353;SDS011;50657;48.830;2.282;2022-12-29T09:15:04;1.50;;;0.10;;
47353;SDS011;50657;48.830;2.282;2022-12-29T09:17:32;3.60;;;0.38;;
47353;SDS011;50657;48.830;2.282;2022-12-29T09:20:12;2.63;;;0.25;;
47353;SDS011;50657;48.830;2.282;2022-12-29T09:22:41;10.60;;;0.40;;
47353;SDS011;50657;48.830;2.282;2022-12-29T09:25:08;3.40;;;0.43;;
47353;SDS011;50657;48.830;2.282;2022-12-29T09:27:36;4.20;;;0.17;;
47353;SDS011;50657;48.830;2.282;2022-12-29T09:30:04;3.67;;;1.20;;
47353;SDS011;50657;48.830;2.282;2022-12-29T09:32:33;3.88;;;0.30;;
47353;SDS011;50657;48.830;2.282;2022-12-29T09:35:00;4.07;;;0.20;;
47353;SDS011;50657;48.830;2.282;2022-12-29T09:37:28;3.38;;;0.20;;
47353;SDS011;50657;48.830;2.282;2022-12-29T09:39:56;3.22;;;0.20;;
47353;SDS011;50657;48.830;2.282;2022-12-29T09:42:24;2.50;;;0.40;;
47353;SDS011;50657;48.830;2.282;2022-12-29T09:45:00;2.50;;;0.20;;
47353;SDS011;50657;48.830;2.282;2022-12-29T09:47:36;4.28;;;0.20;;
47353;SDS011;50657;48.830;2.282;2022-12-29T09:50:05;2.20;;;0.10;;
47353;SDS011;50657;48.830;2.282;2022-12-29T09:52:42;5.28;;;0.68;;
47353;SDS011;50657;48.830;2.282;2022-12-29T09:55:16;4.90;;;0.30;;
47353;SDS011;50657;48.830;2.282;2022-12-29T09:57:48;2.88;;;0.10;;
47353;SDS011;50657;48.830;2.282;2022-12-29T10:00:20;0.85;;;0.30;;
47353;SDS011;50657;48.830;2.282;2022-12-29T10:02:50;0.77;;;0.10;;
47353;SDS011;50657;48.830;2.282;2022-12-29T10:05:27;2.92;;;1.42;;
47353;SDS011;50657;48.830;2.282;2022-12-29T10:08:06;0.73;;;0.10;;
47353;SDS011;50657;48.830;2.282;2022-12-29T10:10:50;1.90;;;0.17;;
47353;SDS011;50657;48.830;2.282;2022-12-29T10:13:26;5.33;;;0.77;;
47353;SDS011;50657;48.830;2.282;2022-12-29T10:16:00;5.50;;;0.95;;
47353;SDS011;50657;48.830;2.282;2022-12-29T10:21:39;4.70;;;0.50;;
47353;SDS011;50657;48.830;2.282;2022-12-29T10:24:14;8.07;;;1.50;;
47353;SDS011;50657;48.830;2.282;2022-12-29T10:26:44;3.15;;;0.20;;
47353;SDS011;50657;48.830;2.282;2022-12-29T10:29:14;6.05;;;0.73;;
47353;SDS011;50657;48.830;2.282;2022-12-29T10:31:44;5.65;;;0.80;;
47353;SDS011;50657;48.830;2.282;2022-12-29T10:34:17;4.88;;;0.30;;
47353;SDS011;50657;48.830;2.282;2022-12-29T10:36:47;3.38;;;0.20;;
47353;SDS011;50657;48.830;2.282;2022-12-29T10:39:16;1.65;;;0.43;;
47353;SDS011;50657;48.830;2.282;2022-12-29T10:41:51;5.45;;;0.20;;
47353;SDS011;50657;48.830;2.282;2022-12-29T10:44:29;1.27;;;0.10;;
47353;SDS011;50657;48.830;2.282;2022-12-29T10:46:59;2.47;;;0.52;;
47353;SDS011;50657;48.830;2.282;2022-12-29T10:49:30;3.67;;;0.30;;
47353;SDS011;50657;48.830;2.282;2022-12-29T10:52:03;7.75;;;0.45;;
47353;SDS011;50657;48.830;2.282;2022-12-29T10:54:32;5.65;;;0.28;;
47353;SDS011;50657;48.830;2.282;2022-12-29T10:57:08;4.45;;;0.35;;
47353;SDS011;50657;48.830;2.282;2022-12-29T10:59:39;3.80;;;2.33;;
47353;SDS011;50657;48.830;2.282;2022-12-29T11:02:13;15.13;;;0.43;;
47353;SDS011;50657;48.830;2.282;2022-12-29T11:04:54;6.85;;;0.68;;
47353;SDS011;50657;48.830;2.282;2022-12-29T11:07:28;9.57;;;0.57;;
47353;SDS011;50657;48.830;2.282;2022-12-29T11:10:03;13.40;;;0.75;;
47353;SDS011;50657;48.830;2.282;2022-12-29T11:15:20;6.15;;;0.50;;
47353;SDS011;50657;48.830;2.282;2022-12-29T11:17:49;8.88;;;0.40;;
47353;SDS011;50657;48.830;2.282;2022-12-29T11:23:04;9.55;;;0.75;;
47353;SDS011;50657;48.830;2.282;2022-12-29T11:25:49;5.80;;;0.40;;
47353;SDS011;50657;48.830;2.282;2022-12-29T11:28:34;4.90;;;0.40;;
47353;SDS011;50657;48.830;2.282;2022-12-29T11:31:03;2.50;;;0.22;;
47353;SDS011;50657;48.830;2.282;2022-12-29T11:33:32;2.22;;;0.28;;
47353;SDS011;50657;48.830;2.282;2022-12-29T11:36:01;2.97;;;0.25;;
47353;SDS011;50657;48.830;2.282;2022-12-29T11:38:33;5.53;;;0.77;;
47353;SDS011;50657;48.830;2.282;2022-12-29T11:41:01;8.68;;;0.70;;
47353;SDS011;50657;48.830;2.282;2022-12-29T11:43:30;4.90;;;0.32;;
47353;SDS011;50657;48.830;2.282;2022-12-29T11:46:00;9.55;;;0.70;;
47353;SDS011;50657;48.830;2.282;2022-12-29T11:48:29;5.85;;;0.50;;
47353;SDS011;50657;48.830;2.282;2022-12-29T11:50:59;4.40;;;0.47;;
47353;SDS011;50657;48.830;2.282;2022-12-29T11:53:27;15.30;;;1.17;;
47353;SDS011;50657;48.830;2.282;2022-12-29T11:56:04;15.30;;;1.25;;
47353;SDS011;50657;48.830;2.282;2022-12-29T11:58:34;8.63;;;0.57;;
47353;SDS011;50657;48.830;2.282;2022-12-29T12:01:05;10.63;;;0.52;;
47353;SDS011;50657;48.830;2.282;2022-12-29T12:03:38;10.23;;;0.73;;
47353;SDS011;50657;48.830;2.282;2022-12-29T12:06:12;10.05;;;0.40;;
47353;SDS011;50657;48.830;2.282;2022-12-29T12:08:44;9.55;;;1.23;;
47353;SDS011;50657;48.830;2.282;2022-12-29T12:11:16;17.58;;;1.70;;
47353;SDS011;50657;48.830;2.282;2022-12-29T12:13:47;7.90;;;1.02;;
47353;SDS011;50657;48.830;2.282;2022-12-29T12:16:33;6.07;;;0.70;;
47353;SDS011;50657;48.830;2.282;2022-12-29T12:19:04;8.77;;;1.13;;
47353;SDS011;50657;48.830;2.282;2022-12-29T12:21:40;6.80;;;0.40;;
47353;SDS011;50657;48.830;2.282;2022-12-29T12:24:15;4.15;;;1.10;;
47353;SDS011;50657;48.830;2.282;2022-12-29T12:26:57;9.70;;;0.80;;
47353;SDS011;50657;48.830;2.282;2022-12-29T12:29:31;10.23;;;1.95;;
47353;SDS011;50657;48.830;2.282;2022-12-29T12:32:06;13.13;;;0.82;;
47353;SDS011;50657;48.830;2.282;2022-12-29T12:34:41;23.05;;;0.80;;
47353;SDS011;50657;48.830;2.282;2022-12-29T12:37:14;21.42;;;0.95;;
47353;SDS011;50657;48.830;2.282;2022-12-29T12:40:22;11.38;;;1.48;;
47353;SDS011;50657;48.830;2.282;2022-12-29T12:43:10;18.23;;;2.65;;
47353;SDS011;50657;48.830;2.282;2022-12-29T12:45:55;13.02;;;0.75;;
47353;SDS011;50657;48.830;2.282;2022-12-29T12:48:39;10.48;;;0.90;;
47353;SDS011;50657;48.830;2.282;2022-12-29T12:51:24;9.93;;;0.82;;
47353;SDS011;50657;48.830;2.282;2022-12-29T12:54:10;13.90;;;0.40;;
47353;SDS011;50657;48.830;2.282;2022-12-29T12:56:52;8.45;;;0.57;;
47353;SDS011;50657;48.830;2.282;2022-12-29T12:59:34;6.63;;;0.80;;
47353;SDS011;50657;48.830;2.282;2022-12-29T13:02:13;4.38;;;0.40;;
47353;SDS011;50657;48.830;2.282;2022-12-29T13:04:52;4.35;;;0.40;;
47353;SDS011;50657;48.830;2.282;2022-12-29T13:07:32;3.33;;;0.20;;
47353;SDS011;50657;48.830;2.282;2022-12-29T13:10:22;9.15;;;0.47;;
47353;SDS011;50657;48.830;2.282;2022-12-29T13:13:03;9.05;;;0.30;;
47353;SDS011;50657;48.830;2.282;2022-12-29T13:15:53;5.63;;;0.30;;
47353;SDS011;50657;48.830;2.282;2022-12-29T13:18:27;20.15;;;1.55;;
47353;SDS011;50657;48.830;2.282;2022-12-29T13:21:02;17.15;;;1.75;;
47353;SDS011;50657;48.830;2.282;2022-12-29T13:23:36;15.88;;;0.63;;
47353;SDS011;50657;48.830;2.282;2022-12-29T13:26:11;10.80;;;0.30;;
47353;SDS011;50657;48.830;2.282;2022-12-29T13:28:46;10.48;;;0.30;;
47353;SDS011;50657;48.830;2.282;2022-12-29T13:31:20;8.05;;;0.82;;
47353;SDS011;50657;48.830;2.282;2022-12-29T13:33:59;5.03;;;0.40;;
47353;SDS011;50657;48.830;2.282;2022-12-29T13:36:35;6.95;;;1.00;;
47353;SDS011;50657;48.830;2.282;2022-12-29T13:39:10;6.35;;;1.73;;
47353;SDS011;50657;48.830;2.282;2022-12-29T13:41:42;10.25;;;0.80;;
47353;SDS011;50657;48.830;2.282;2022-12-29T13:44:14;6.70;;;0.63;;
47353;SDS011;50657;48.830;2.282;2022-12-29T13:46:45;10.63;;;0.80;;
47353;SDS011;50657;48.830;2.282;2022-12-29T13:49:13;7.57;;;0.90;;
47353;SDS011;50657;48.830;2.282;2022-12-29T13:51:46;8.55;;;0.47;;
47353;SDS011;50657;48.830;2.282;2022-12-29T13:54:23;4.32;;;1.20;;
47353;SDS011;50657;48.830;2.282;2022-12-29T13:56:59;3.70;;;0.20;;
47353;SDS011;50657;48.830;2.282;2022-12-29T13:59:36;3.78;;;0.43;;
47353;SDS011;50657;48.830;2.282;2022-12-29T14:04:54;9.43;;;0.38;;
47353;SDS011;50657;48.830;2.282;2022-12-29T14:07:24;3.92;;;0.65;;
47353;SDS011;50657;48.830;2.282;2022-12-29T14:09:52;9.98;;;0.30;;
47353;SDS011;50657;48.830;2.282;2022-12-29T14:12:34;2.80;;;0.50;;
47353;SDS011;50657;48.830;2.282;2022-12-29T14:15:14;8.85;;;0.45;;
47353;SDS011;50657;48.830;2.282;2022-12-29T14:17:59;2.72;;;0.63;;
47353;SDS011;50657;48.830;2.282;2022-12-29T14:20:32;6.65;;;0.47;;
47353;SDS011;50657;48.830;2.282;2022-12-29T14:23:16;3.88;;;0.10;;
47353;SDS011;50657;48.830;2.282;2022-12-29T14:25:53;6.22;;;0.40;;
47353;SDS011;50657;48.830;2.282;2022-12-29T14:28:22;5.55;;;0.30;;
47353;SDS011;50657;48.830;2.282;2022-12-29T14:30:51;10.90;;;0.82;;
47353;SDS011;50657;48.830;2.282;2022-12-29T14:33:19;5.78;;;0.22;;
47353;SDS011;50657;48.830;2.282;2022-12-29T14:35:48;4.78;;;0.70;;
47353;SDS011;50657;48.830;2.282;2022-12-29T14:38:19;3.45;;;0.32;;
47353;SDS011;50657;48.830;2.282;2022-12-29T14:43:57;8.40;;;0.40;;
47353;SDS011;50657;48.830;2.282;2022-12-29T14:46:41;9.00;;;0.57;;
47353;SDS011;50657;48.830;2.282;2022-12-29T14:49:11;4.22;;;0.30;;
47353;SDS011;50657;48.830;2.282;2022-12-29T14:51:43;7.15;;;0.93;;
47353;SDS011;50657;48.830;2.282;2022-12-29T14:57:11;5.60;;;0.77;;
47353;SDS011;50657;48.830;2.282;2022-12-29T14:59:45;4.57;;;0.65;;
47353;SDS011;50657;48.830;2.282;2022-12-29T15:02:15;5.57;;;0.77;;
47353;SDS011;50657;48.830;2.282;2022-12-29T15:04:45;4.00;;;0.30;;
47353;SDS011;50657;48.830;2.282;2022-12-29T15:07:13;8.30;;;0.50;;
47353;SDS011;50657;48.830;2.282;2022-12-29T15:09:43;4.90;;;0.90;;
47353;SDS011;50657;48.830;2.282;2022-12-29T15:12:18;4.63;;;0.40;;
47353;SDS011;50657;48.830;2.282;2022-12-29T15:14:49;3.95;;;0.75;;
47353;SDS011;50657;48.830;2.282;2022-12-29T15:17:24;10.20;;;0.43;;
47353;SDS011;50657;48.830;2.282;2022-12-29T15:19:53;4.80;;;0.40;;
47353;SDS011;50657;48.830;2.282;2022-12-29T15:22:21;3.95;;;0.30;;
47353;SDS011;50657;48.830;2.282;2022-12-29T15:24:51;3.65;;;0.45;;
47353;SDS011;50657;48.830;2.282;2022-12-29T15:27:20;2.13;;;0.20;;
47353;SDS011;50657;48.830;2.282;2022-12-29T15:29:55;3.60;;;0.40;;
47353;SDS011;50657;48.830;2.282;2022-12-29T15:32:24;5.22;;;0.77;;
47353;SDS011;50657;48.830;2.282;2022-12-29T15:34:53;4.57;;;0.28;;
47353;SDS011;50657;48.830;2.282;2022-12-29T15:37:22;6.35;;;0.45;;
47353;SDS011;50657;48.830;2.282;2022-12-29T15:39:52;4.13;;;0.52;;